sensor_id;sensor_type;location;lat;lon;timestamp;pressure;altitude;pressure_sealevel;temperature;humidity
20628;BME280;10473;42.734;24.258;2023-04-07T00:01:23;91442.22;;;1.59;67.69
20628;BME280;10473;42.734;24.258;2023-04-07T00:03:52;91432.69;;;1.63;66.96
20628;BME280;10473;42.734;24.258;2023-04-07T00:06:20;91450.25;;;1.54;67.74
20628;BME280;10473;42.734;24.258;2023-04-07T00:08:47;91448.50;;;1.47;68.24
20628;BME280;10473;42.734;24.258;2023-04-07T00:11:15;91458.28;;;1.49;68.75
20628;BME280;10473;42.734;24.258;2023-04-07T00:13:44;91454.63;;;1.51;68.89
20628;BME280;10473;42.734;24.258;2023-04-07T00:16:11;91451.81;;;1.35;68.69
20628;BME280;10473;42.734;24.258;2023-04-07T00:18:40;91456.94;;;1.32;69.47
20628;BME280;10473;42.734;24.258;2023-04-07T00:21:09;91457.34;;;1.33;69.06
20628;BME280;10473;42.734;24.258;2023-04-07T00:23:37;91444.31;;;1.33;68.91
20628;BME280;10473;42.734;24.258;2023-04-07T00:26:04;91456.16;;;1.10;69.63
20628;BME280;10473;42.734;24.258;2023-04-07T00:28:36;91455.25;;;1.27;69.66
20628;BME280;10473;42.734;24.258;2023-04-07T00:31:04;91461.28;;;1.39;69.14
20628;BME280;10473;42.734;24.258;2023-04-07T00:33:32;91457.44;;;1.46;68.65
20628;BME280;10473;42.734;24.258;2023-04-07T00:36:00;91442.28;;;1.39;68.48
20628;BME280;10473;42.734;24.258;2023-04-07T00:38:29;91462.00;;;1.48;68.15
20628;BME280;10473;42.734;24.258;2023-04-07T00:40:57;91452.72;;;1.39;68.85
20628;BME280;10473;42.734;24.258;2023-04-07T00:43:25;91444.38;;;1.04;69.02
20628;BME280;10473;42.734;24.258;2023-04-07T00:45:53;91457.03;;;1.14;69.40
20628;BME280;10473;42.734;24.258;2023-04-07T00:48:21;91454.38;;;1.02;69.76
20628;BME280;10473;42.734;24.258;2023-04-07T00:50:49;91450.69;;;1.03;68.90
20628;BME280;10473;42.734;24.258;2023-04-07T00:53:17;91452.78;;;1.10;68.79
20628;BME280;10473;42.734;24.258;2023-04-07T00:55:46;91455.47;;;1.02;69.58
20628;BME280;10473;42.734;24.258;2023-04-07T00:58:14;91445.06;;;0.93;70.13
20628;BME280;10473;42.734;24.258;2023-04-07T01:03:30;91461.25;;;1.07;69.72
20628;BME280;10473;42.734;24.258;2023-04-07T01:06:01;91455.47;;;1.02;69.64
20628;BME280;10473;42.734;24.258;2023-04-07T01:08:37;91450.31;;;1.13;69.20
20628;BME280;10473;42.734;24.258;2023-04-07T01:11:16;91455.00;;;0.99;69.46
20628;BME280;10473;42.734;24.258;2023-04-07T01:13:49;91459.28;;;1.04;69.96
20628;BME280;10473;42.734;24.258;2023-04-07T01:16:41;91466.16;;;1.08;68.69
20628;BME280;10473;42.734;24.258;2023-04-07T01:19:15;91468.81;;;1.00;68.83
20628;BME280;10473;42.734;24.258;2023-04-07T01:21:52;91459.47;;;0.99;69.39
20628;BME280;10473;42.734;24.258;2023-04-07T01:24:38;91462.13;;;0.90;69.73
20628;BME280;10473;42.734;24.258;2023-04-07T01:27:20;91466.22;;;1.00;69.04
20628;BME280;10473;42.734;24.258;2023-04-07T01:29:51;91469.13;;;0.98;68.41
20628;BME280;10473;42.734;24.258;2023-04-07T01:32:21;91467.47;;;0.94;69.37
20628;BME280;10473;42.734;24.258;2023-04-07T01:34:50;91464.53;;;0.95;69.15
20628;BME280;10473;42.734;24.258;2023-04-07T01:37:19;91467.97;;;0.88;69.87
20628;BME280;10473;42.734;24.258;2023-04-07T01:39:48;91471.13;;;1.02;69.03
20628;BME280;10473;42.734;24.258;2023-04-07T01:42:16;91467.97;;;0.88;69.78
20628;BME280;10473;42.734;24.258;2023-04-07T01:44:45;91461.38;;;0.90;69.60
20628;BME280;10473;42.734;24.258;2023-04-07T01:47:15;91466.59;;;0.61;70.49
20628;BME280;10473;42.734;24.258;2023-04-07T01:49:46;91477.50;;;0.83;70.15
20628;BME280;10473;42.734;24.258;2023-04-07T01:52:16;91468.47;;;0.81;69.87
20628;BME280;10473;42.734;24.258;2023-04-07T01:54:44;91469.34;;;0.64;69.66
20628;BME280;10473;42.734;24.258;2023-04-07T01:57:12;91469.38;;;0.56;69.32
20628;BME280;10473;42.734;24.258;2023-04-07T01:59:41;91455.56;;;0.35;69.71
20628;BME280;10473;42.734;24.258;2023-04-07T02:02:09;91456.66;;;0.25;70.47
20628;BME280;10473;42.734;24.258;2023-04-07T02:04:47;91464.06;;;0.44;70.89
20628;BME280;10473;42.734;24.258;2023-04-07T02:07:21;91452.31;;;0.38;71.02
20628;BME280;10473;42.734;24.258;2023-04-07T02:09:54;91463.31;;;0.43;69.91
20628;BME280;10473;42.734;24.258;2023-04-07T02:12:25;91467.97;;;0.29;71.11
20628;BME280;10473;42.734;24.258;2023-04-07T02:15:08;91459.38;;;0.38;70.66
20628;BME280;10473;42.734;24.258;2023-04-07T02:17:40;91460.41;;;0.45;70.76
20628;BME280;10473;42.734;24.258;2023-04-07T02:20:11;91459.00;;;0.47;71.01
20628;BME280;10473;42.734;24.258;2023-04-07T02:22:40;91473.09;;;0.46;70.38
20628;BME280;10473;42.734;24.258;2023-04-07T02:25:24;91462.97;;;0.53;69.82
20628;BME280;10473;42.734;24.258;2023-04-07T02:27:54;91463.19;;;0.40;69.93
20628;BME280;10473;42.734;24.258;2023-04-07T02:30:22;91461.56;;;0.56;70.43
20628;BME280;10473;42.734;24.258;2023-04-07T02:32:50;91465.09;;;0.51;70.53
20628;BME280;10473;42.734;24.258;2023-04-07T02:35:21;91463.09;;;0.57;69.83
20628;BME280;10473;42.734;24.258;2023-04-07T02:37:49;91473.81;;;0.64;69.38
20628;BME280;10473;42.734;24.258;2023-04-07T02:40:17;91474.78;;;0.51;69.61
20628;BME280;10473;42.734;24.258;2023-04-07T02:42:45;91471.41;;;0.50;69.12
20628;BME280;10473;42.734;24.258;2023-04-07T02:45:13;91467.72;;;0.51;69.66
20628;BME280;10473;42.734;24.258;2023-04-07T02:47:41;91467.41;;;0.53;69.88
20628;BME280;10473;42.734;24.258;2023-04-07T02:50:09;91472.03;;;0.47;70.22
20628;BME280;10473;42.734;24.258;2023-04-07T02:52:39;91470.97;;;0.48;70.15
20628;BME280;10473;42.734;24.258;2023-04-07T02:55:12;91478.59;;;0.53;69.37
20628;BME280;10473;42.734;24.258;2023-04-07T02:57:40;91474.97;;;0.46;69.74
20628;BME280;10473;42.734;24.258;2023-04-07T03:00:15;91476.47;;;0.47;69.81
20628;BME280;10473;42.734;24.258;2023-04-07T03:03:03;91473.06;;;0.55;69.23
20628;BME280;10473;42.734;24.258;2023-04-07T03:05:34;91476.16;;;0.48;69.09
20628;BME280;10473;42.734;24.258;2023-04-07T03:08:05;91470.66;;;0.41;69.25
20628;BME280;10473;42.734;24.258;2023-04-07T03:10:33;91475.44;;;0.39;69.41
20628;BME280;10473;42.734;24.258;2023-04-07T03:13:01;91470.84;;;0.08;70.05
20628;BME280;10473;42.734;24.258;2023-04-07T03:15:29;91466.06;;;0.09;70.36
20628;BME280;10473;42.734;24.258;2023-04-07T03:17:57;91475.97;;;0.24;70.58
20628;BME280;10473;42.734;24.258;2023-04-07T03:20:25;91482.09;;;0.28;69.55
20628;BME280;10473;42.734;24.258;2023-04-07T03:22:53;91487.16;;;0.25;70.04
20628;BME280;10473;42.734;24.258;2023-04-07T03:25:27;91482.53;;;0.30;70.49
20628;BME280;10473;42.734;24.258;2023-04-07T03:27:55;91477.00;;;-0.06;70.28
20628;BME280;10473;42.734;24.258;2023-04-07T03:30:25;91480.00;;;0.13;70.09
20628;BME280;10473;42.734;24.258;2023-04-07T03:32:53;91483.53;;;0.00;70.68
20628;BME280;10473;42.734;24.258;2023-04-07T03:35:21;91474.66;;;0.10;70.19
20628;BME280;10473;42.734;24.258;2023-04-07T03:37:50;91488.75;;;0.00;70.56
20628;BME280;10473;42.734;24.258;2023-04-07T03:40:18;91485.28;;;-0.21;70.71
20628;BME280;10473;42.734;24.258;2023-04-07T03:42:49;91473.84;;;-0.28;70.82
20628;BME280;10473;42.734;24.258;2023-04-07T03:45:17;91490.50;;;-0.38;71.52
20628;BME280;10473;42.734;24.258;2023-04-07T03:47:49;91498.00;;;-0.19;70.91
20628;BME280;10473;42.734;24.258;2023-04-07T03:50:22;91479.78;;;-0.28;71.73
20628;BME280;10473;42.734;24.258;2023-04-07T03:53:02;91496.63;;;-0.17;70.99
20628;BME280;10473;42.734;24.258;2023-04-07T03:55:31;91494.19;;;-0.22;71.84
20628;BME280;10473;42.734;24.258;2023-04-07T03:58:08;91499.22;;;-0.17;71.44
20628;BME280;10473;42.734;24.258;2023-04-07T04:00:37;91499.81;;;-0.11;71.01
20628;BME280;10473;42.734;24.258;2023-04-07T04:03:11;91501.97;;;-0.13;70.10
20628;BME280;10473;42.734;24.258;2023-04-07T04:05:49;91505.78;;;-0.11;70.02
20628;BME280;10473;42.734;24.258;2023-04-07T04:08:24;91500.75;;;-0.16;70.21
20628;BME280;10473;42.734;24.258;2023-04-07T04:10:52;91511.63;;;-0.31;70.93
20628;BME280;10473;42.734;24.258;2023-04-07T04:13:21;91502.72;;;-0.13;70.48
20628;BME280;10473;42.734;24.258;2023-04-07T04:15:50;91506.41;;;-0.14;70.30
20628;BME280;10473;42.734;24.258;2023-04-07T04:18:18;91504.53;;;-0.05;70.60
20628;BME280;10473;42.734;24.258;2023-04-07T04:20:48;91511.59;;;-0.14;70.83
20628;BME280;10473;42.734;24.258;2023-04-07T04:23:16;91511.75;;;-0.10;69.98
20628;BME280;10473;42.734;24.258;2023-04-07T04:25:44;91519.56;;;-0.19;70.86
20628;BME280;10473;42.734;24.258;2023-04-07T04:28:12;91513.28;;;-0.09;70.00
20628;BME280;10473;42.734;24.258;2023-04-07T04:30:42;91514.19;;;-0.14;70.45
20628;BME280;10473;42.734;24.258;2023-04-07T04:33:10;91519.56;;;-0.02;69.60
20628;BME280;10473;42.734;24.258;2023-04-07T04:35:48;91525.69;;;0.03;70.31
20628;BME280;10473;42.734;24.258;2023-04-07T04:38:19;91499.19;;;-0.08;70.51
20628;BME280;10473;42.734;24.258;2023-04-07T04:41:01;91521.66;;;0.13;70.01
20628;BME280;10473;42.734;24.258;2023-04-07T04:43:31;91530.28;;;0.43;69.55
20628;BME280;10473;42.734;24.258;2023-04-07T04:46:01;91525.81;;;0.52;69.63
20628;BME280;10473;42.734;24.258;2023-04-07T04:48:34;91531.53;;;0.74;69.83
20628;BME280;10473;42.734;24.258;2023-04-07T04:51:04;91531.09;;;1.02;69.44
20628;BME280;10473;42.734;24.258;2023-04-07T04:53:32;91528.47;;;1.31;68.58
20628;BME280;10473;42.734;24.258;2023-04-07T04:56:01;91533.16;;;1.58;68.18
20628;BME280;10473;42.734;24.258;2023-04-07T04:58:38;91540.94;;;1.98;67.06
20628;BME280;10473;42.734;24.258;2023-04-07T05:01:11;91536.78;;;2.30;65.85
20628;BME280;10473;42.734;24.258;2023-04-07T05:03:47;91532.81;;;2.57;64.68
20628;BME280;10473;42.734;24.258;2023-04-07T05:06:20;91542.88;;;2.91;64.17
20628;BME280;10473;42.734;24.258;2023-04-07T05:08:51;91545.81;;;3.25;62.82
20628;BME280;10473;42.734;24.258;2023-04-07T05:11:22;91553.34;;;3.39;61.28
20628;BME280;10473;42.734;24.258;2023-04-07T05:13:52;91556.69;;;3.51;60.83
20628;BME280;10473;42.734;24.258;2023-04-07T05:16:21;91557.19;;;3.69;60.12
20628;BME280;10473;42.734;24.258;2023-04-07T05:18:49;91557.00;;;4.01;60.28
20628;BME280;10473;42.734;24.258;2023-04-07T05:21:18;91561.69;;;4.23;60.08
20628;BME280;10473;42.734;24.258;2023-04-07T05:23:49;91547.31;;;4.45;59.65
20628;BME280;10473;42.734;24.258;2023-04-07T05:26:19;91561.50;;;4.44;58.43
20628;BME280;10473;42.734;24.258;2023-04-07T05:28:48;91566.91;;;4.94;58.43
20628;BME280;10473;42.734;24.258;2023-04-07T05:31:20;91569.53;;;5.25;57.62
20628;BME280;10473;42.734;24.258;2023-04-07T05:33:52;91564.53;;;5.35;55.96
20628;BME280;10473;42.734;24.258;2023-04-07T05:36:56;91552.75;;;5.45;55.32
20628;BME280;10473;42.734;24.258;2023-04-07T05:39:24;91569.94;;;5.77;53.73
20628;BME280;10473;42.734;24.258;2023-04-07T05:41:55;91550.97;;;5.68;54.72
20628;BME280;10473;42.734;24.258;2023-04-07T05:44:26;91559.47;;;6.11;55.14
20628;BME280;10473;42.734;24.258;2023-04-07T05:46:54;91570.66;;;6.08;51.58
20628;BME280;10473;42.734;24.258;2023-04-07T05:49:25;91558.06;;;6.17;53.11
20628;BME280;10473;42.734;24.258;2023-04-07T05:52:04;91560.00;;;6.20;50.67
20628;BME280;10473;42.734;24.258;2023-04-07T05:54:36;91564.50;;;6.39;50.15
20628;BME280;10473;42.734;24.258;2023-04-07T05:57:06;91575.16;;;6.46;49.21
20628;BME280;10473;42.734;24.258;2023-04-07T05:59:35;91567.13;;;6.58;50.42
20628;BME280;10473;42.734;24.258;2023-04-07T06:02:03;91546.06;;;6.58;48.11
20628;BME280;10473;42.734;24.258;2023-04-07T06:04:33;91572.03;;;6.59;47.74
20628;BME280;10473;42.734;24.258;2023-04-07T06:07:03;91568.06;;;6.69;47.39
20628;BME280;10473;42.734;24.258;2023-04-07T06:09:31;91572.66;;;6.94;49.51
20628;BME280;10473;42.734;24.258;2023-04-07T06:12:01;91567.50;;;7.24;49.05
20628;BME280;10473;42.734;24.258;2023-04-07T06:14:31;91574.13;;;7.37;46.38
20628;BME280;10473;42.734;24.258;2023-04-07T06:16:59;91566.44;;;7.28;46.19
20628;BME280;10473;42.734;24.258;2023-04-07T06:19:27;91574.03;;;7.56;45.63
20628;BME280;10473;42.734;24.258;2023-04-07T06:21:56;91569.34;;;7.68;45.11
20628;BME280;10473;42.734;24.258;2023-04-07T06:24:27;91559.66;;;7.76;44.96
20628;BME280;10473;42.734;24.258;2023-04-07T06:26:55;91573.84;;;7.94;45.18
20628;BME280;10473;42.734;24.258;2023-04-07T06:29:23;91577.56;;;8.19;44.40
20628;BME280;10473;42.734;24.258;2023-04-07T06:31:52;91578.75;;;8.51;45.69
20628;BME280;10473;42.734;24.258;2023-04-07T06:34:20;91565.59;;;8.25;43.29
20628;BME280;10473;42.734;24.258;2023-04-07T06:36:48;91564.50;;;8.26;44.15
20628;BME280;10473;42.734;24.258;2023-04-07T06:39:18;91584.06;;;8.25;43.67
20628;BME280;10473;42.734;24.258;2023-04-07T06:41:46;91573.78;;;8.46;42.35
20628;BME280;10473;42.734;24.258;2023-04-07T06:44:14;91580.75;;;8.61;42.23
20628;BME280;10473;42.734;24.258;2023-04-07T06:46:42;91576.94;;;8.55;41.97
20628;BME280;10473;42.734;24.258;2023-04-07T06:49:12;91570.75;;;8.44;43.51
20628;BME280;10473;42.734;24.258;2023-04-07T06:51:41;91573.66;;;8.35;43.01
20628;BME280;10473;42.734;24.258;2023-04-07T06:54:09;91580.44;;;8.36;41.41
20628;BME280;10473;42.734;24.258;2023-04-07T06:56:40;91586.16;;;8.38;42.13
20628;BME280;10473;42.734;24.258;2023-04-07T06:59:09;91586.50;;;8.37;42.89
20628;BME280;10473;42.734;24.258;2023-04-07T07:01:36;91593.31;;;8.71;44.25
20628;BME280;10473;42.734;24.258;2023-04-07T07:04:04;91600.28;;;8.86;42.13
20628;BME280;10473;42.734;24.258;2023-04-07T07:06:32;91584.56;;;8.63;42.75
20628;BME280;10473;42.734;24.258;2023-04-07T07:08:59;91584.81;;;8.88;42.23
20628;BME280;10473;42.734;24.258;2023-04-07T07:11:28;91586.97;;;8.79;41.70
20628;BME280;10473;42.734;24.258;2023-04-07T07:13:57;91590.59;;;8.97;40.91
20628;BME280;10473;42.734;24.258;2023-04-07T07:16:24;91591.44;;;9.08;41.45
20628;BME280;10473;42.734;24.258;2023-04-07T07:18:54;91594.63;;;9.24;42.98
20628;BME280;10473;42.734;24.258;2023-04-07T07:21:21;91601.56;;;8.99;41.95
20628;BME280;10473;42.734;24.258;2023-04-07T07:23:49;91591.19;;;9.20;41.99
20628;BME280;10473;42.734;24.258;2023-04-07T07:26:16;91600.63;;;9.64;41.17
20628;BME280;10473;42.734;24.258;2023-04-07T07:28:44;91593.13;;;9.70;40.43
20628;BME280;10473;42.734;24.258;2023-04-07T07:31:13;91608.03;;;9.92;41.64
20628;BME280;10473;42.734;24.258;2023-04-07T07:33:42;91610.81;;;10.06;39.65
20628;BME280;10473;42.734;24.258;2023-04-07T07:36:11;91604.91;;;10.26;39.97
20628;BME280;10473;42.734;24.258;2023-04-07T07:38:39;91596.59;;;10.31;38.63
20628;BME280;10473;42.734;24.258;2023-04-07T07:41:06;91607.41;;;10.05;39.53
20628;BME280;10473;42.734;24.258;2023-04-07T07:43:34;91602.00;;;9.95;37.86
20628;BME280;10473;42.734;24.258;2023-04-07T07:46:02;91608.47;;;10.01;40.10
20628;BME280;10473;42.734;24.258;2023-04-07T07:48:32;91605.94;;;9.64;39.18
20628;BME280;10473;42.734;24.258;2023-04-07T07:50:59;91606.69;;;9.65;38.38
20628;BME280;10473;42.734;24.258;2023-04-07T07:53:27;91609.25;;;10.01;38.98
20628;BME280;10473;42.734;24.258;2023-04-07T07:55:54;91610.81;;;10.06;38.67
20628;BME280;10473;42.734;24.258;2023-04-07T07:58:22;91608.41;;;9.90;39.01
20628;BME280;10473;42.734;24.258;2023-04-07T08:00:50;91609.91;;;9.88;38.65
20628;BME280;10473;42.734;24.258;2023-04-07T08:03:17;91602.44;;;10.04;39.70
20628;BME280;10473;42.734;24.258;2023-04-07T08:05:49;91611.69;;;10.27;38.77
20628;BME280;10473;42.734;24.258;2023-04-07T08:08:42;91604.16;;;10.29;39.91
20628;BME280;10473;42.734;24.258;2023-04-07T08:11:10;91610.13;;;10.16;39.50
20628;BME280;10473;42.734;24.258;2023-04-07T08:13:37;91607.78;;;10.07;39.85
20628;BME280;10473;42.734;24.258;2023-04-07T08:16:05;91616.81;;;10.03;38.42
20628;BME280;10473;42.734;24.258;2023-04-07T08:18:33;91617.31;;;10.15;39.30
20628;BME280;10473;42.734;24.258;2023-04-07T08:21:02;91601.75;;;10.82;41.95
20628;BME280;10473;42.734;24.258;2023-04-07T08:23:31;91615.81;;;10.89;41.12
20628;BME280;10473;42.734;24.258;2023-04-07T08:25:58;91604.53;;;10.28;40.01
20628;BME280;10473;42.734;24.258;2023-04-07T08:28:26;91608.78;;;10.50;38.62
20628;BME280;10473;42.734;24.258;2023-04-07T08:30:54;91617.69;;;10.92;37.85
20628;BME280;10473;42.734;24.258;2023-04-07T08:33:21;91610.59;;;11.35;40.10
20628;BME280;10473;42.734;24.258;2023-04-07T08:35:49;91607.66;;;11.82;37.71
20628;BME280;10473;42.734;24.258;2023-04-07T08:38:18;91602.34;;;11.99;38.18
20628;BME280;10473;42.734;24.258;2023-04-07T08:40:47;91603.09;;;11.79;36.23
20628;BME280;10473;42.734;24.258;2023-04-07T08:43:17;91598.13;;;11.53;35.68
20628;BME280;10473;42.734;24.258;2023-04-07T08:45:46;91587.09;;;11.23;36.60
20628;BME280;10473;42.734;24.258;2023-04-07T08:48:16;91588.25;;;11.22;35.77
20628;BME280;10473;42.734;24.258;2023-04-07T08:50:44;91595.38;;;11.04;36.21
20628;BME280;10473;42.734;24.258;2023-04-07T08:53:12;91603.69;;;10.99;37.73
20628;BME280;10473;42.734;24.258;2023-04-07T08:55:42;91599.59;;;11.22;36.38
20628;BME280;10473;42.734;24.258;2023-04-07T08:58:10;91604.34;;;10.71;36.06
20628;BME280;10473;42.734;24.258;2023-04-07T09:00:39;91603.59;;;10.71;36.60
20628;BME280;10473;42.734;24.258;2023-04-07T09:03:08;91609.50;;;10.36;36.18
20628;BME280;10473;42.734;24.258;2023-04-07T09:05:37;91611.00;;;10.37;37.26
20628;BME280;10473;42.734;24.258;2023-04-07T09:08:05;91606.47;;;10.38;39.10
20628;BME280;10473;42.734;24.258;2023-04-07T09:10:33;91598.22;;;10.53;38.80
20628;BME280;10473;42.734;24.258;2023-04-07T09:13:02;91604.00;;;10.83;37.93
20628;BME280;10473;42.734;24.258;2023-04-07T09:15:30;91603.66;;;10.81;37.46
20628;BME280;10473;42.734;24.258;2023-04-07T09:18:01;91603.19;;;10.62;37.22
20628;BME280;10473;42.734;24.258;2023-04-07T09:20:54;91607.03;;;10.75;38.64
20628;BME280;10473;42.734;24.258;2023-04-07T09:23:29;91609.94;;;10.52;36.58
20628;BME280;10473;42.734;24.258;2023-04-07T09:25:57;91600.38;;;10.30;36.83
20628;BME280;10473;42.734;24.258;2023-04-07T09:28:40;91599.53;;;10.19;39.56
20628;BME280;10473;42.734;24.258;2023-04-07T09:42:50;91605.09;;;10.00;38.84
20628;BME280;10473;42.734;24.258;2023-04-07T09:45:25;91600.78;;;9.82;38.35
20628;BME280;10473;42.734;24.258;2023-04-07T09:47:54;91586.34;;;9.72;38.91
20628;BME280;10473;42.734;24.258;2023-04-07T09:50:30;91591.78;;;9.90;39.21
20628;BME280;10473;42.734;24.258;2023-04-07T09:53:00;91601.00;;;10.06;39.58
20628;BME280;10473;42.734;24.258;2023-04-07T09:55:29;91596.16;;;10.19;39.20
20628;BME280;10473;42.734;24.258;2023-04-07T09:57:58;91605.59;;;10.20;39.39
20628;BME280;10473;42.734;24.258;2023-04-07T10:00:26;91601.47;;;10.26;38.15
20628;BME280;10473;42.734;24.258;2023-04-07T10:02:54;91607.81;;;10.11;37.56
20628;BME280;10473;42.734;24.258;2023-04-07T10:05:22;91596.22;;;9.79;37.68
20628;BME280;10473;42.734;24.258;2023-04-07T10:07:51;91598.44;;;9.70;38.86
20628;BME280;10473;42.734;24.258;2023-04-07T10:10:19;91606.47;;;9.84;38.58
20628;BME280;10473;42.734;24.258;2023-04-07T10:12:48;91603.69;;;10.17;38.11
20628;BME280;10473;42.734;24.258;2023-04-07T10:15:17;91610.19;;;10.30;38.52
20628;BME280;10473;42.734;24.258;2023-04-07T10:17:46;91613.09;;;10.75;37.80
20628;BME280;10473;42.734;24.258;2023-04-07T10:20:16;91615.81;;;10.93;37.25
20628;BME280;10473;42.734;24.258;2023-04-07T10:22:46;91600.22;;;10.81;36.27
20628;BME280;10473;42.734;24.258;2023-04-07T10:25:18;91605.00;;;10.47;35.76
20628;BME280;10473;42.734;24.258;2023-04-07T10:27:48;91615.59;;;10.44;37.83
20628;BME280;10473;42.734;24.258;2023-04-07T10:30:22;91619.91;;;10.12;37.80
20628;BME280;10473;42.734;24.258;2023-04-07T10:32:52;91623.81;;;10.28;38.58
20628;BME280;10473;42.734;24.258;2023-04-07T10:35:21;91628.19;;;10.07;38.26
20628;BME280;10473;42.734;24.258;2023-04-07T10:38:08;91619.81;;;9.98;38.20
20628;BME280;10473;42.734;24.258;2023-04-07T10:40:37;91619.22;;;9.71;38.54
20628;BME280;10473;42.734;24.258;2023-04-07T10:43:06;91634.06;;;9.43;38.69
20628;BME280;10473;42.734;24.258;2023-04-07T10:45:54;91627.63;;;9.40;38.45
20628;BME280;10473;42.734;24.258;2023-04-07T10:48:25;91633.72;;;9.44;38.92
20628;BME280;10473;42.734;24.258;2023-04-07T10:51:14;91627.72;;;9.47;39.73
20628;BME280;10473;42.734;24.258;2023-04-07T10:57:12;91617.13;;;9.47;38.91
20628;BME280;10473;42.734;24.258;2023-04-07T10:59:41;91624.84;;;9.63;38.35
20628;BME280;10473;42.734;24.258;2023-04-07T11:02:31;91630.56;;;9.72;39.10
20628;BME280;10473;42.734;24.258;2023-04-07T11:05:00;91631.97;;;9.59;39.03
20628;BME280;10473;42.734;24.258;2023-04-07T11:07:50;91627.72;;;9.51;38.66
20628;BME280;10473;42.734;24.258;2023-04-07T11:10:20;91634.53;;;9.52;40.72
20628;BME280;10473;42.734;24.258;2023-04-07T11:13:02;91635.47;;;9.73;38.05
20628;BME280;10473;42.734;24.258;2023-04-07T11:15:30;91630.97;;;9.77;38.88
20628;BME280;10473;42.734;24.258;2023-04-07T11:18:12;91635.91;;;9.79;39.22
20628;BME280;10473;42.734;24.258;2023-04-07T11:20:42;91633.66;;;9.81;38.70
20628;BME280;10473;42.734;24.258;2023-04-07T11:23:10;91627.19;;;9.75;38.06
20628;BME280;10473;42.734;24.258;2023-04-07T11:25:38;91634.09;;;9.90;37.75
20628;BME280;10473;42.734;24.258;2023-04-07T11:28:08;91630.78;;;10.03;36.97
20628;BME280;10473;42.734;24.258;2023-04-07T11:30:36;91632.78;;;10.13;38.68
20628;BME280;10473;42.734;24.258;2023-04-07T11:33:05;91635.91;;;10.26;38.85
20628;BME280;10473;42.734;24.258;2023-04-07T11:35:35;91642.31;;;10.25;38.22
20628;BME280;10473;42.734;24.258;2023-04-07T11:38:03;91632.13;;;10.27;38.46
20628;BME280;10473;42.734;24.258;2023-04-07T11:40:32;91638.88;;;10.21;39.45
20628;BME280;10473;42.734;24.258;2023-04-07T11:43:01;91645.84;;;10.43;39.42
20628;BME280;10473;42.734;24.258;2023-04-07T11:45:28;91645.41;;;10.30;38.50
20628;BME280;10473;42.734;24.258;2023-04-07T11:47:56;91642.78;;;10.37;37.80
20628;BME280;10473;42.734;24.258;2023-04-07T11:50:41;91650.22;;;10.18;38.06
20628;BME280;10473;42.734;24.258;2023-04-07T11:53:09;91639.56;;;10.11;37.75
20628;BME280;10473;42.734;24.258;2023-04-07T11:55:36;91639.91;;;10.06;37.82
20628;BME280;10473;42.734;24.258;2023-04-07T11:58:05;91641.50;;;10.14;39.10
20628;BME280;10473;42.734;24.258;2023-04-07T12:00:35;91633.44;;;10.00;38.30
20628;BME280;10473;42.734;24.258;2023-04-07T12:03:13;91636.88;;;10.04;39.26
20628;BME280;10473;42.734;24.258;2023-04-07T12:05:43;91644.16;;;10.14;39.99
20628;BME280;10473;42.734;24.258;2023-04-07T12:08:12;91647.50;;;10.07;39.72
20628;BME280;10473;42.734;24.258;2023-04-07T12:10:41;91649.66;;;9.95;40.52
20628;BME280;10473;42.734;24.258;2023-04-07T12:13:09;91638.22;;;9.84;39.50
20628;BME280;10473;42.734;24.258;2023-04-07T12:15:37;91646.97;;;9.91;41.31
20628;BME280;10473;42.734;24.258;2023-04-07T12:18:04;91641.69;;;9.95;40.42
20628;BME280;10473;42.734;24.258;2023-04-07T12:20:32;91646.88;;;9.81;40.57
20628;BME280;10473;42.734;24.258;2023-04-07T12:23:02;91642.91;;;9.57;41.16
20628;BME280;10473;42.734;24.258;2023-04-07T12:25:30;91647.53;;;9.67;42.18
20628;BME280;10473;42.734;24.258;2023-04-07T12:27:57;91655.19;;;9.79;44.49
20628;BME280;10473;42.734;24.258;2023-04-07T12:30:29;91649.88;;;9.76;41.12
20628;BME280;10473;42.734;24.258;2023-04-07T12:32:57;91661.25;;;9.80;41.35
20628;BME280;10473;42.734;24.258;2023-04-07T12:35:25;91652.94;;;9.81;40.57
20628;BME280;10473;42.734;24.258;2023-04-07T12:37:54;91644.34;;;9.95;42.84
20628;BME280;10473;42.734;24.258;2023-04-07T12:40:23;91662.66;;;10.10;41.17
20628;BME280;10473;42.734;24.258;2023-04-07T12:42:51;91659.28;;;10.17;41.83
20628;BME280;10473;42.734;24.258;2023-04-07T12:45:19;91660.47;;;10.23;41.29
20628;BME280;10473;42.734;24.258;2023-04-07T12:47:47;91661.66;;;10.29;40.67
20628;BME280;10473;42.734;24.258;2023-04-07T12:50:14;91666.16;;;10.25;41.25
20628;BME280;10473;42.734;24.258;2023-04-07T12:52:42;91665.44;;;10.31;41.00
20628;BME280;10473;42.734;24.258;2023-04-07T12:55:10;91665.88;;;10.37;43.09
20628;BME280;10473;42.734;24.258;2023-04-07T12:57:40;91663.97;;;10.41;41.68
20628;BME280;10473;42.734;24.258;2023-04-07T13:00:09;91667.88;;;10.57;41.71
20628;BME280;10473;42.734;24.258;2023-04-07T13:02:36;91670.94;;;10.63;41.26
20628;BME280;10473;42.734;24.258;2023-04-07T13:05:05;91667.53;;;10.62;41.03
20628;BME280;10473;42.734;24.258;2023-04-07T13:07:35;91676.25;;;10.70;41.58
20628;BME280;10473;42.734;24.258;2023-04-07T13:10:03;91664.94;;;10.73;42.38
20628;BME280;10473;42.734;24.258;2023-04-07T13:12:34;91666.00;;;10.58;42.48
20628;BME280;10473;42.734;24.258;2023-04-07T13:15:07;91663.28;;;10.51;42.03
20628;BME280;10473;42.734;24.258;2023-04-07T13:17:35;91670.13;;;10.52;42.64
20628;BME280;10473;42.734;24.258;2023-04-07T13:20:06;91664.81;;;10.52;41.77
20628;BME280;10473;42.734;24.258;2023-04-07T13:22:35;91668.53;;;10.37;42.69
20628;BME280;10473;42.734;24.258;2023-04-07T13:25:04;91672.34;;;10.43;43.05
20628;BME280;10473;42.734;24.258;2023-04-07T13:27:33;91673.81;;;10.37;42.27
20628;BME280;10473;42.734;24.258;2023-04-07T13:30:02;91632.00;;;10.09;44.18